Time;durP1;ratioP1;P1;durP2;ratioP2;P2;SDS_P1;SDS_P2;PMS_P1;PMS_P2;Temp;Humidity;BMP_temperature;BMP_pressure;BME280_temperature;BME280_humidity;BME280_pressure;Samples;Min_cycle;Max_cycle;Signal;HPM_P1;HPM_P2
2021/11/30 00:00:49;;;;;;;2.67;2.10;;;0.40;99.90;;;;;;5026516;28;20045;-67
2021/11/30 00:03:15;;;;;;;5.97;2.45;;;0.40;99.90;;;;;;5042949;28;20465;-66
2021/11/30 00:05:40;;;;;;;5.40;2.13;;;0.40;99.90;;;;;;5034163;28;20072;-67
2021/11/30 00:08:06;;;;;;;3.50;2.38;;;0.40;99.90;;;;;;5033812;28;20112;-66
2021/11/30 00:10:44;;;;;;;4.28;2.80;;;0.40;99.90;;;;;;5021764;28;20033;-66
2021/11/30 00:13:16;;;;;;;5.05;2.75;;;0.40;99.90;;;;;;5020241;28;20026;-66
2021/11/30 00:15:42;;;;;;;2.30;2.10;;;0.30;99.90;;;;;;5045266;28;20029;-66
2021/11/30 00:18:08;;;;;;;2.28;1.85;;;0.30;99.90;;;;;;5041982;28;20029;-66
2021/11/30 00:20:38;;;;;;;2.85;2.28;;;0.30;99.90;;;;;;5046748;28;20024;-66
2021/11/30 00:23:05;;;;;;;1.98;1.75;;;0.30;99.90;;;;;;5049117;28;20086;-66
2021/11/30 00:25:31;;;;;;;4.38;2.60;;;0.40;99.90;;;;;;5034100;28;20045;-66
2021/11/30 00:27:57;;;;;;;2.38;2.00;;;0.40;99.90;;;;;;5036537;28;20120;-67
2021/11/30 00:30:23;;;;;;;3.30;2.53;;;0.40;99.90;;;;;;5037692;28;20044;-66
2021/11/30 00:32:50;;;;;;;3.25;2.30;;;0.50;99.90;;;;;;5031187;28;20052;-66
2021/11/30 00:35:15;;;;;;;4.20;2.25;;;0.40;99.90;;;;;;5044971;28;20037;-66
2021/11/30 00:37:41;;;;;;;2.50;2.15;;;0.40;99.90;;;;;;5050466;28;20491;-66
2021/11/30 00:40:08;;;;;;;11.15;2.55;;;0.40;99.90;;;;;;5024457;28;20037;-66
2021/11/30 00:42:34;;;;;;;3.28;2.58;;;0.40;99.90;;;;;;5043685;28;20037;-66
2021/11/30 00:45:02;;;;;;;1.90;1.80;;;0.40;99.90;;;;;;5046549;28;20035;-66
2021/11/30 00:47:31;;;;;;;2.10;2.00;;;0.50;99.90;;;;;;5028860;28;20036;-67
2021/11/30 00:49:59;;;;;;;2.65;2.00;;;0.50;99.90;;;;;;5021319;28;22070;-66
2021/11/30 00:52:26;;;;;;;1.40;1.35;;;0.50;99.90;;;;;;5044908;28;20017;-66
2021/11/30 00:54:52;;;;;;;2.28;1.55;;;0.50;99.90;;;;;;5045357;28;20880;-66
2021/11/30 00:57:20;;;;;;;2.00;1.80;;;0.50;99.90;;;;;;5039610;28;20032;-67
2021/11/30 00:59:46;;;;;;;2.33;2.10;;;0.50;99.90;;;;;;5043758;28;20086;-66
2021/11/30 01:02:12;;;;;;;3.47;2.30;;;0.50;99.90;;;;;;5049816;28;20041;-67
2021/11/30 01:04:38;;;;;;;3.08;2.13;;;0.50;99.90;;;;;;5042668;28;20068;-66
2021/11/30 01:07:04;;;;;;;5.93;2.15;;;0.50;99.90;;;;;;5039392;28;20022;-66
2021/11/30 01:09:30;;;;;;;2.03;1.88;;;0.50;99.90;;;;;;5042781;28;20086;-66
2021/11/30 01:11:55;;;;;;;2.85;2.63;;;0.50;99.90;;;;;;5040217;28;20036;-66
2021/11/30 01:14:22;;;;;;;2.60;1.95;;;0.50;99.90;;;;;;5046346;28;20029;-67
2021/11/30 01:16:48;;;;;;;1.75;1.65;;;0.50;99.90;;;;;;5030943;28;20048;-66
2021/11/30 01:19:15;;;;;;;2.25;1.98;;;0.50;99.90;;;;;;5028490;28;20028;-67
2021/11/30 01:21:41;;;;;;;2.50;2.28;;;0.50;99.90;;;;;;5019504;28;20383;-66
2021/11/30 01:24:08;;;;;;;2.67;2.47;;;0.50;99.90;;;;;;5043462;28;20039;-66
2021/11/30 01:26:34;;;;;;;2.03;1.90;;;0.50;99.90;;;;;;5043790;28;20016;-66
2021/11/30 01:29:00;;;;;;;2.63;1.95;;;0.50;99.90;;;;;;5049890;28;20048;-66
2021/11/30 01:31:26;;;;;;;1.92;1.70;;;0.50;99.90;;;;;;5047740;28;20624;-66
2021/11/30 01:33:52;;;;;;;2.03;1.80;;;0.50;99.90;;;;;;5044055;28;20061;-66
2021/11/30 01:36:18;;;;;;;1.70;1.60;;;0.50;99.90;;;;;;5051116;28;20028;-66
2021/11/30 01:38:44;;;;;;;3.97;2.78;;;0.50;99.90;;;;;;5053176;28;20025;-66
2021/11/30 01:41:11;;;;;;;2.20;2.05;;;0.50;99.90;;;;;;5040996;28;20045;-66
2021/11/30 01:43:43;;;;;;;1.70;1.60;;;0.50;99.90;;;;;;5047827;28;20017;-66
2021/11/30 01:46:15;;;;;;;2.83;1.77;;;0.50;99.90;;;;;;5036183;28;20014;-66
2021/11/30 01:51:26;;;;;;;1.92;1.60;;;0.60;99.90;;;;;;5043389;28;20079;-66
2021/11/30 01:53:54;;;;;;;1.60;1.50;;;0.60;99.90;;;;;;5054875;28;20048;-66
2021/11/30 01:56:20;;;;;;;1.93;1.83;;;0.60;99.90;;;;;;5053975;28;20025;-66
2021/11/30 01:58:47;;;;;;;2.47;1.67;;;0.50;99.90;;;;;;5047955;28;20059;-66
2021/11/30 02:01:14;;;;;;;4.50;1.80;;;0.50;99.90;;;;;;5050537;28;20037;-67
2021/11/30 02:03:40;;;;;;;2.42;2.30;;;0.60;99.90;;;;;;5039424;28;20024;-66
2021/11/30 02:06:06;;;;;;;3.83;2.40;;;0.60;99.90;;;;;;5050569;28;20043;-66
2021/11/30 02:08:31;;;;;;;2.50;1.85;;;0.60;99.90;;;;;;5040994;28;20029;-66
2021/11/30 02:10:57;;;;;;;4.47;1.90;;;0.60;99.90;;;;;;5039442;28;20029;-67
2021/11/30 02:13:24;;;;;;;1.70;1.60;;;0.50;99.90;;;;;;5031157;28;20106;-67
2021/11/30 02:15:54;;;;;;;2.15;1.73;;;0.50;99.90;;;;;;5039349;28;20028;-67
2021/11/30 02:18:24;;;;;;;2.60;2.05;;;0.50;99.90;;;;;;5048519;28;20159;-68
2021/11/30 02:21:02;;;;;;;2.00;1.90;;;0.50;99.90;;;;;;5052838;28;20029;-67
2021/11/30 02:23:46;;;;;;;2.42;1.83;;;0.50;99.90;;;;;;5045689;28;20034;-67
2021/11/30 02:26:13;;;;;;;1.92;1.77;;;0.50;99.90;;;;;;5048557;28;20174;-66
2021/11/30 02:28:42;;;;;;;12.57;2.80;;;0.50;99.90;;;;;;5046197;28;20021;-66
2021/11/30 02:31:10;;;;;;;2.42;1.88;;;0.60;99.90;;;;;;5049137;28;20045;-67
2021/11/30 02:33:37;;;;;;;1.63;1.52;;;0.60;99.90;;;;;;5053240;28;20035;-67
2021/11/30 02:36:14;;;;;;;2.05;1.88;;;0.60;99.90;;;;;;5038724;28;20068;-67
2021/11/30 02:38:40;;;;;;;1.90;1.80;;;0.60;99.90;;;;;;5041744;28;20025;-67
2021/11/30 02:41:05;;;;;;;2.13;2.03;;;0.60;99.90;;;;;;5032906;28;20040;-67
2021/11/30 02:43:31;;;;;;;2.55;1.83;;;0.60;99.90;;;;;;5052038;28;20041;-67
2021/11/30 02:45:57;;;;;;;1.60;1.50;;;0.60;99.90;;;;;;5043969;28;20518;-67
2021/11/30 02:48:22;;;;;;;1.80;1.70;;;0.60;99.90;;;;;;5025561;28;20032;-67
2021/11/30 02:50:49;;;;;;;2.35;1.98;;;0.60;99.90;;;;;;5039459;28;20065;-67
2021/11/30 02:53:21;;;;;;;2.15;1.95;;;0.60;99.90;;;;;;5046971;28;20028;-67
2021/11/30 02:55:46;;;;;;;2.75;1.80;;;0.60;99.90;;;;;;5040649;28;20029;-67
2021/11/30 02:58:13;;;;;;;2.75;2.55;;;0.60;99.90;;;;;;5043668;28;20032;-67
2021/11/30 03:00:39;;;;;;;2.00;1.80;;;0.60;99.90;;;;;;5040179;28;20025;-67
2021/11/30 03:03:05;;;;;;;1.95;1.48;;;0.60;99.90;;;;;;5049770;28;20600;-67
2021/11/30 03:05:30;;;;;;;2.40;2.20;;;0.60;99.90;;;;;;5043318;28;20033;-67
2021/11/30 03:07:56;;;;;;;1.45;1.35;;;0.60;99.90;;;;;;5052386;28;20047;-67
2021/11/30 03:10:21;;;;;;;1.77;1.67;;;0.60;99.90;;;;;;5047607;28;20028;-67
2021/11/30 03:12:49;;;;;;;2.40;1.77;;;0.60;99.90;;;;;;5029116;28;20021;-67
2021/11/30 03:15:21;;;;;;;1.67;1.58;;;0.60;99.90;;;;;;5048654;28;20063;-66
2021/11/30 03:17:47;;;;;;;1.88;1.70;;;0.60;99.90;;;;;;5034729;28;20489;-66
2021/11/30 03:20:14;;;;;;;2.08;1.90;;;0.60;99.90;;;;;;5038562;28;20068;-67
2021/11/30 03:22:40;;;;;;;2.33;2.00;;;0.60;99.90;;;;;;5046361;28;20187;-67
2021/11/30 03:25:11;;;;;;;2.30;1.83;;;0.60;99.90;;;;;;5038340;28;20108;-67
2021/11/30 03:27:36;;;;;;;2.78;1.67;;;0.60;99.90;;;;;;5046717;28;20025;-67
2021/11/30 03:30:08;;;;;;;1.92;1.80;;;0.60;99.90;;;;;;5042764;28;20041;-67
2021/11/30 03:35:01;;;;;;;2.28;1.88;;;0.60;99.90;;;;;;5047391;28;20036;-67
2021/11/30 03:37:27;;;;;;;1.92;1.80;;;0.60;99.90;;;;;;5022511;28;20029;-67
2021/11/30 03:39:53;;;;;;;2.35;1.70;;;0.60;99.90;;;;;;5035164;28;20033;-67
2021/11/30 03:42:19;;;;;;;2.05;1.30;;;0.60;99.90;;;;;;5050130;28;20136;-67
2021/11/30 03:44:45;;;;;;;1.98;1.83;;;0.70;99.90;;;;;;5040194;28;20024;-67
2021/11/30 03:47:10;;;;;;;1.70;1.60;;;0.70;99.90;;;;;;5046454;28;20029;-67
2021/11/30 03:49:36;;;;;;;1.83;1.73;;;0.70;99.90;;;;;;5035396;28;20021;-67
2021/11/30 03:52:02;;;;;;;1.60;1.50;;;0.70;99.90;;;;;;5047360;28;20515;-67
2021/11/30 03:54:29;;;;;;;1.65;1.55;;;0.70;99.90;;;;;;5040021;28;20107;-67
2021/11/30 03:56:56;;;;;;;1.77;1.58;;;0.70;99.90;;;;;;5050514;28;20594;-67
2021/11/30 03:59:22;;;;;;;2.75;2.05;;;0.70;99.90;;;;;;5046873;28;20622;-67
2021/11/30 04:01:48;;;;;;;1.67;1.58;;;0.80;99.90;;;;;;5043236;28;20082;-67
2021/11/30 04:04:25;;;;;;;1.50;1.45;;;0.80;99.90;;;;;;5039340;28;20024;-67
2021/11/30 04:06:54;;;;;;;1.42;1.40;;;0.70;99.90;;;;;;5049484;28;20025;-67
2021/11/30 04:09:20;;;;;;;1.40;1.30;;;0.80;99.90;;;;;;5046983;28;20028;-67
2021/11/30 04:11:47;;;;;;;3.40;1.58;;;0.80;99.90;;;;;;5050637;28;20037;-67
2021/11/30 04:14:13;;;;;;;1.40;1.40;;;0.80;99.90;;;;;;5045137;28;20035;-67
2021/11/30 04:16:41;;;;;;;1.42;1.30;;;0.80;99.90;;;;;;5049187;28;20186;-67
2021/11/30 04:19:07;;;;;;;1.20;1.20;;;0.80;99.90;;;;;;5034310;28;20021;-67
2021/11/30 04:21:32;;;;;;;2.08;1.90;;;0.80;99.90;;;;;;5037411;28;20033;-67
2021/11/30 04:23:58;;;;;;;1.58;1.52;;;0.80;99.90;;;;;;5026743;28;20041;-67
2021/11/30 04:26:24;;;;;;;1.70;1.30;;;0.80;99.90;;;;;;5044782;28;20142;-67
2021/11/30 04:28:50;;;;;;;2.33;1.67;;;0.80;99.90;;;;;;5026779;28;20024;-67
2021/11/30 04:31:15;;;;;;;1.77;1.67;;;0.80;99.90;;;;;;5042718;28;20119;-67
2021/11/30 04:33:42;;;;;;;1.63;1.52;;;0.70;99.90;;;;;;5037353;28;20581;-67
2021/11/30 04:36:07;;;;;;;2.85;1.65;;;0.70;99.90;;;;;;5040889;28;20520;-67
2021/11/30 04:38:35;;;;;;;2.28;1.50;;;0.70;99.90;;;;;;5036172;28;20057;-67
2021/11/30 04:41:00;;;;;;;2.90;1.65;;;0.70;99.90;;;;;;5046190;28;20021;-67
2021/11/30 04:43:33;;;;;;;1.90;1.77;;;0.70;99.90;;;;;;5035249;28;20033;-67
2021/11/30 04:46:02;;;;;;;1.08;1.05;;;0.60;99.90;;;;;;5042957;28;20028;-67
2021/11/30 04:48:29;;;;;;;1.65;1.50;;;0.60;99.90;;;;;;5045629;28;20060;-67
2021/11/30 04:50:57;;;;;;;4.30;1.67;;;0.60;99.90;;;;;;5045920;28;20039;-67
2021/11/30 04:53:25;;;;;;;2.25;1.92;;;0.60;99.90;;;;;;5044945;28;20043;-67
2021/11/30 04:55:52;;;;;;;;;;;0.60;99.90;;;;;;5030168;28;20033;-67
2021/11/30 04:58:18;;;;;;;1.52;1.42;;;0.60;99.90;;;;;;5046887;28;20011;-67
2021/11/30 05:00:46;;;;;;;1.90;1.80;;;0.60;99.90;;;;;;5049216;28;20894;-67
2021/11/30 05:03:12;;;;;;;1.83;1.55;;;0.50;99.90;;;;;;5053652;28;20028;-67
2021/11/30 05:05:39;;;;;;;1.90;1.60;;;0.50;99.90;;;;;;5038427;28;20523;-67
2021/11/30 05:08:05;;;;;;;2.50;1.70;;;0.50;99.90;;;;;;5042871;28;20047;-67
2021/11/30 05:10:30;;;;;;;1.40;1.35;;;0.50;99.90;;;;;;5045770;28;20033;-67
2021/11/30 05:12:56;;;;;;;1.55;1.45;;;0.50;99.90;;;;;;5044561;28;20135;-67
2021/11/30 05:15:22;;;;;;;2.22;1.30;;;0.50;99.90;;;;;;5034075;28;20060;-67
2021/11/30 05:17:47;;;;;;;2.92;1.98;;;0.50;99.90;;;;;;5044898;28;20024;-67
2021/11/30 05:20:13;;;;;;;2.40;1.80;;;0.50;99.90;;;;;;5031769;28;20033;-66
2021/11/30 05:22:39;;;;;;;3.22;1.92;;;0.50;99.90;;;;;;5034558;28;20044;-66
2021/11/30 05:25:07;;;;;;;4.95;2.08;;;0.50;99.90;;;;;;5042016;28;20025;-66
2021/11/30 05:27:39;;;;;;;5.60;2.00;;;0.40;99.90;;;;;;5047971;28;22277;-67
2021/11/30 05:30:12;;;;;;;2.97;2.55;;;0.50;99.90;;;;;;5053387;28;20045;-67
2021/11/30 05:32:38;;;;;;;2.95;1.80;;;0.50;99.90;;;;;;5041414;28;20049;-67
2021/11/30 05:35:04;;;;;;;2.20;2.10;;;0.50;99.90;;;;;;5053092;28;20016;-67
2021/11/30 05:37:30;;;;;;;1.95;1.85;;;0.50;99.90;;;;;;5050568;28;20028;-67
2021/11/30 05:39:56;;;;;;;3.83;1.80;;;0.50;99.90;;;;;;5044941;28;20490;-66
2021/11/30 05:42:21;;;;;;;2.67;1.95;;;0.50;99.90;;;;;;5054968;28;20040;-66
2021/11/30 05:44:47;;;;;;;1.60;1.50;;;0.50;99.90;;;;;;5029245;28;20120;-67
2021/11/30 05:47:13;;;;;;;3.13;2.30;;;0.60;99.90;;;;;;5052594;28;20355;-67
2021/11/30 05:49:38;;;;;;;2.08;1.88;;;0.60;99.90;;;;;;5047899;28;20025;-67
2021/11/30 05:52:04;;;;;;;2.13;1.75;;;0.60;99.90;;;;;;5033404;28;20171;-66
2021/11/30 05:54:30;;;;;;;3.33;2.22;;;0.60;99.90;;;;;;5043855;28;20037;-66
2021/11/30 05:56:56;;;;;;;2.10;2.00;;;0.60;99.90;;;;;;5035201;28;20025;-66
2021/11/30 05:59:22;;;;;;;2.70;1.63;;;0.60;99.90;;;;;;5040046;28;20040;-66
2021/11/30 06:01:48;;;;;;;1.85;1.75;;;0.60;99.90;;;;;;5038273;28;20033;-67
2021/11/30 06:04:13;;;;;;;3.15;1.90;;;0.60;99.90;;;;;;5048971;28;20021;-66
2021/11/30 06:06:39;;;;;;;2.75;1.55;;;0.70;99.90;;;;;;5042312;28;20033;-66
2021/11/30 06:09:07;;;;;;;2.63;1.75;;;0.70;99.90;;;;;;5048475;28;20474;-67
2021/11/30 06:11:33;;;;;;;1.52;1.40;;;0.70;99.90;;;;;;5042340;28;20033;-66
2021/11/30 06:13:59;;;;;;;2.22;2.00;;;0.70;99.90;;;;;;5038506;28;20070;-66
2021/11/30 06:16:26;;;;;;;1.92;1.80;;;0.70;99.90;;;;;;5051774;28;20082;-67
2021/11/30 06:18:52;;;;;;;3.15;2.10;;;0.70;99.90;;;;;;5047890;28;20436;-67
2021/11/30 06:21:18;;;;;;;1.80;1.70;;;0.70;99.90;;;;;;5042352;28;20040;-67
2021/11/30 06:23:44;;;;;;;2.03;1.40;;;0.70;99.90;;;;;;5048510;28;20028;-67
2021/11/30 06:26:11;;;;;;;2.38;2.13;;;0.70;99.90;;;;;;5040100;28;20091;-67
2021/11/30 06:28:38;;;;;;;2.55;1.88;;;0.70;99.90;;;;;;5051054;28;20033;-67
2021/11/30 06:31:05;;;;;;;1.75;1.63;;;0.70;99.90;;;;;;5045571;28;20044;-67
2021/11/30 06:33:31;;;;;;;2.15;1.90;;;0.70;99.90;;;;;;5047021;28;20041;-67
2021/11/30 06:35:57;;;;;;;8.73;2.15;;;0.70;99.90;;;;;;5044282;28;20036;-67
2021/11/30 06:38:23;;;;;;;1.52;1.17;;;0.70;99.90;;;;;;5042290;28;20078;-67
2021/11/30 06:40:50;;;;;;;2.03;1.83;;;0.70;99.90;;;;;;5044735;28;20029;-67
2021/11/30 06:43:16;;;;;;;8.10;1.70;;;0.70;99.90;;;;;;5031707;28;20473;-67
2021/11/30 06:45:42;;;;;;;1.60;1.50;;;0.70;99.90;;;;;;5031830;28;20037;-67
2021/11/30 06:48:08;;;;;;;4.50;2.05;;;0.80;99.90;;;;;;5030106;28;20345;-67
2021/11/30 06:50:33;;;;;;;2.35;1.80;;;0.80;99.90;;;;;;5031150;28;20043;-67
2021/11/30 06:52:59;;;;;;;2.10;1.95;;;0.80;99.90;;;;;;5044132;28;20033;-67
2021/11/30 06:55:25;;;;;;;1.50;1.45;;;0.70;99.90;;;;;;5034874;28;20032;-67
2021/11/30 06:57:50;;;;;;;1.50;1.40;;;0.80;99.90;;;;;;5051829;28;22054;-67
2021/11/30 07:00:20;;;;;;;2.30;1.63;;;0.80;99.90;;;;;;5034941;28;20890;-67
2021/11/30 07:02:47;;;;;;;1.60;1.50;;;0.80;99.90;;;;;;5039489;28;20091;-67
2021/11/30 07:10:40;;;;;;;1.80;1.63;;;0.80;99.90;;;;;;5036577;28;20029;-67
2021/11/30 07:16:05;;;;;;;2.30;2.17;;;0.80;99.90;;;;;;5028439;28;20042;-67
2021/11/30 07:18:31;;;;;;;;;;;0.80;99.90;;;;;;5042648;28;20050;-67
2021/11/30 07:20:58;;;;;;;1.80;1.73;;;0.80;99.30;;;;;;5049927;28;19911;-67
2021/11/30 07:23:25;;;;;;;2.00;1.80;;;0.80;99.90;;;;;;5037987;28;20512;-67
2021/11/30 07:25:52;;;;;;;2.47;1.65;;;0.80;99.90;;;;;;5051922;28;20060;-67
2021/11/30 07:28:21;;;;;;;1.73;1.65;;;0.80;99.20;;;;;;5048927;28;20033;-67
2021/11/30 07:30:47;;;;;;;2.13;1.88;;;0.80;99.40;;;;;;5043013;28;20049;-67
2021/11/30 07:33:12;;;;;;;2.63;2.30;;;0.80;99.40;;;;;;5052061;28;20090;-67
2021/11/30 07:35:39;;;;;;;2.25;2.05;;;0.80;99.90;;;;;;5045874;28;20052;-67
2021/11/30 07:38:05;;;;;;;1.98;1.88;;;0.80;99.90;;;;;;5046408;28;20032;-67
2021/11/30 07:40:30;;;;;;;1.55;1.48;;;0.80;99.90;;;;;;5035259;28;20029;-67
2021/11/30 07:42:56;;;;;;;1.98;1.85;;;0.80;99.40;;;;;;5050969;28;20025;-67
2021/11/30 07:45:22;;;;;;;3.90;2.00;;;0.80;99.20;;;;;;5052793;28;20024;-67
2021/11/30 07:47:48;;;;;;;1.70;1.60;;;0.80;99.70;;;;;;5050239;28;20485;-67
2021/11/30 07:50:14;;;;;;;1.65;1.33;;;0.80;99.80;;;;;;5033916;28;20041;-67
2021/11/30 07:52:41;;;;;;;2.10;1.90;;;0.90;99.90;;;;;;5033233;28;20028;-67
2021/11/30 07:55:09;;;;;;;1.35;1.25;;;0.90;99.30;;;;;;5037913;28;20021;-67
2021/11/30 07:57:34;;;;;;;1.85;1.75;;;0.80;99.20;;;;;;5044643;28;20033;-67
2021/11/30 08:00:00;;;;;;;2.72;2.08;;;0.90;99.80;;;;;;5033943;28;20036;-67
2021/11/30 08:02:26;;;;;;;2.08;1.98;;;0.90;99.20;;;;;;5046205;28;20037;-67
2021/11/30 08:04:52;;;;;;;2.15;1.50;;;0.90;98.60;;;;;;5046093;28;20037;-67
2021/11/30 08:07:18;;;;;;;1.52;1.42;;;0.90;99.80;;;;;;5051166;28;20026;-67
2021/11/30 08:09:46;;;;;;;2.30;2.10;;;0.90;99.90;;;;;;5042613;28;20025;-67
2021/11/30 08:12:13;;;;;;;2.05;1.88;;;0.80;99.90;;;;;;5049097;28;20635;-67
2021/11/30 08:14:39;;;;;;;1.60;1.50;;;0.80;99.90;;;;;;5045105;28;20021;-67
2021/11/30 08:17:09;;;;;;;6.00;1.98;;;0.70;99.90;;;;;;5043321;28;20028;-67
2021/11/30 08:19:35;;;;;;;2.50;2.30;;;0.70;99.90;;;;;;5035814;28;20017;-67
2021/11/30 08:22:01;;;;;;;2.55;1.95;;;0.60;99.90;;;;;;5020546;28;20044;-67
2021/11/30 08:24:27;;;;;;;1.70;1.60;;;0.60;99.90;;;;;;5045870;28;20405;-67
2021/11/30 08:26:52;;;;;;;3.03;2.72;;;0.50;99.90;;;;;;5049756;28;20040;-67
2021/11/30 08:29:18;;;;;;;4.95;2.35;;;0.50;99.90;;;;;;5032604;28;20258;-67
2021/11/30 08:31:44;;;;;;;1.90;1.80;;;0.50;99.90;;;;;;5045541;28;20674;-67
2021/11/30 08:34:09;;;;;;;2.85;2.13;;;0.30;99.90;;;;;;5036758;28;20037;-67
2021/11/30 08:36:35;;;;;;;2.08;1.60;;;0.30;99.90;;;;;;5053895;28;20032;-67
2021/11/30 08:39:00;;;;;;;3.40;2.28;;;0.30;99.90;;;;;;5039326;28;20051;-67
2021/11/30 08:41:26;;;;;;;1.90;1.80;;;0.30;99.90;;;;;;5035443;28;20055;-67
2021/11/30 08:43:52;;;;;;;2.47;1.38;;;0.20;99.90;;;;;;5048560;28;20029;-67
2021/11/30 08:46:17;;;;;;;2.15;1.90;;;0.20;99.90;;;;;;5047087;28;20044;-67
2021/11/30 08:48:43;;;;;;;1.60;1.50;;;0.30;99.90;;;;;;5028307;28;20117;-67
2021/11/30 08:51:09;;;;;;;4.72;2.28;;;0.30;99.90;;;;;;5055377;28;20392;-67
2021/11/30 08:53:35;;;;;;;1.13;1.13;;;0.30;99.90;;;;;;5025266;28;20029;-67
2021/11/30 08:56:02;;;;;;;2.97;2.67;;;0.30;99.90;;;;;;5051968;28;20069;-67
2021/11/30 08:58:28;;;;;;;4.90;2.72;;;0.30;99.90;;;;;;5040699;28;20083;-67
2021/11/30 09:00:55;;;;;;;2.33;1.65;;;0.30;99.90;;;;;;5042276;28;20045;-67
2021/11/30 09:03:21;;;;;;;3.53;3.08;;;0.30;99.90;;;;;;5024433;28;20111;-67
2021/11/30 09:05:46;;;;;;;3.42;2.38;;;0.30;99.90;;;;;;5031763;28;20477;-67
2021/11/30 09:08:12;;;;;;;2.95;2.05;;;0.30;99.90;;;;;;5051171;28;20026;-67
2021/11/30 09:10:38;;;;;;;3.25;1.67;;;0.30;99.90;;;;;;5040191;28;20359;-67
2021/11/30 09:13:04;;;;;;;3.67;1.90;;;0.30;99.90;;;;;;5036421;28;20140;-68
2021/11/30 09:15:30;;;;;;;2.08;1.98;;;0.30;99.90;;;;;;5045201;28;20465;-69
2021/11/30 09:17:56;;;;;;;2.88;1.63;;;0.30;99.90;;;;;;5047776;28;20484;-68
2021/11/30 09:20:24;;;;;;;4.22;2.22;;;0.30;99.90;;;;;;5051191;28;20044;-68
2021/11/30 09:22:51;;;;;;;2.30;2.17;;;0.40;99.90;;;;;;5042280;28;20033;-68
2021/11/30 09:25:17;;;;;;;1.52;1.42;;;0.40;99.90;;;;;;5036530;28;20041;-67
2021/11/30 09:27:43;;;;;;;5.30;2.92;;;0.40;99.90;;;;;;5044907;28;20045;-67
2021/11/30 09:30:11;;;;;;;1.90;1.73;;;0.40;99.90;;;;;;5050103;28;20051;-67
2021/11/30 09:32:39;;;;;;;2.72;1.52;;;0.40;99.90;;;;;;5027992;28;20371;-67
2021/11/30 09:35:07;;;;;;;1.70;1.60;;;0.40;99.90;;;;;;5048299;28;20025;-68
2021/11/30 09:37:35;;;;;;;1.90;1.80;;;0.40;99.90;;;;;;5046739;28;20420;-68
2021/11/30 09:40:01;;;;;;;1.98;1.75;;;0.50;99.90;;;;;;5027745;28;20119;-68
2021/11/30 09:42:27;;;;;;;3.55;1.40;;;0.40;99.90;;;;;;5044505;28;20029;-67
2021/11/30 09:44:54;;;;;;;1.70;1.60;;;0.40;99.90;;;;;;5043438;28;20025;-67
2021/11/30 09:47:20;;;;;;;1.92;1.80;;;0.40;99.90;;;;;;5047800;28;20036;-67
2021/11/30 09:49:47;;;;;;;1.90;1.55;;;0.40;99.90;;;;;;5047995;28;20028;-67
2021/11/30 09:52:12;;;;;;;10.90;1.80;;;0.40;99.90;;;;;;5054158;28;20044;-68
2021/11/30 09:54:38;;;;;;;1.38;1.27;;;0.50;99.90;;;;;;5039061;28;20033;-68
2021/11/30 09:57:04;;;;;;;1.50;1.40;;;0.50;99.90;;;;;;5034171;28;20019;-68
2021/11/30 09:59:30;;;;;;;1.48;1.38;;;0.50;99.90;;;;;;5052201;28;20028;-67
2021/11/30 10:01:56;;;;;;;1.80;1.60;;;0.50;99.90;;;;;;5030282;28;20535;-67
2021/11/30 10:04:22;;;;;;;2.63;2.03;;;0.50;99.90;;;;;;5050219;28;20025;-68
2021/11/30 10:06:47;;;;;;;1.20;1.20;;;0.50;99.90;;;;;;5054335;28;20039;-68
2021/11/30 10:09:18;;;;;;;1.58;1.48;;;0.50;99.90;;;;;;5046130;28;20024;-67
2021/11/30 10:11:44;;;;;;;1.50;1.40;;;0.50;99.90;;;;;;5053094;28;20021;-68
2021/11/30 10:14:24;;;;;;;1.80;1.73;;;0.50;99.90;;;;;;5049139;28;20036;-67
2021/11/30 10:17:08;;;;;;;1.85;1.55;;;0.50;99.90;;;;;;5048275;28;20034;-68
2021/11/30 10:19:34;;;;;;;1.30;1.30;;;0.50;99.90;;;;;;5055285;28;20547;-68
2021/11/30 10:22:00;;;;;;;1.40;1.30;;;0.40;99.90;;;;;;5046334;28;20028;-68
2021/11/30 10:24:25;;;;;;;0.90;0.90;;;0.50;99.90;;;;;;5033077;28;20033;-68
2021/11/30 10:26:55;;;;;;;2.15;1.48;;;0.50;99.90;;;;;;5047651;28;20056;-68
2021/11/30 10:29:21;;;;;;;2.25;2.05;;;0.50;99.90;;;;;;5045728;28;20064;-68
2021/11/30 10:31:49;;;;;;;2.25;1.67;;;0.30;99.90;;;;;;5049011;28;21157;-68
2021/11/30 10:34:29;;;;;;;1.48;1.38;;;0.30;99.90;;;;;;5050758;28;20543;-68
2021/11/30 10:36:59;;;;;;;1.63;1.52;;;0.30;99.90;;;;;;5052475;28;20115;-70
2021/11/30 10:39:29;;;;;;;1.92;1.73;;;0.30;99.90;;;;;;5051780;28;20036;-68
2021/11/30 10:42:18;;;;;;;2.78;2.28;;;0.40;99.90;;;;;;5057206;28;20012;-68
2021/11/30 10:44:47;;;;;;;1.60;1.50;;;0.30;99.90;;;;;;5055898;28;20699;-67
2021/11/30 10:47:18;;;;;;;2.55;1.85;;;0.30;99.90;;;;;;5048423;28;20025;-67
2021/11/30 10:50:09;;;;;;;1.33;1.33;;;0.40;99.90;;;;;;5055942;28;20025;-67
2021/11/30 10:52:35;;;;;;;1.85;1.50;;;0.40;99.90;;;;;;5023095;28;20403;-67
2021/11/30 10:55:06;;;;;;;1.70;1.60;;;0.40;99.90;;;;;;5035492;28;20087;-67
2021/11/30 10:57:32;;;;;;;2.08;1.85;;;0.40;99.90;;;;;;5047929;28;20029;-68
2021/11/30 11:00:16;;;;;;;5.07;1.73;;;0.50;99.90;;;;;;5050732;28;20020;-68
2021/11/30 11:05:31;;;;;;;1.45;1.35;;;0.50;99.90;;;;;;5054116;28;21163;-67
2021/11/30 11:08:11;;;;;;;1.52;1.42;;;0.50;99.90;;;;;;5044028;28;20033;-68
2021/11/30 11:10:40;;;;;;;1.77;1.48;;;0.50;99.90;;;;;;5049030;28;20047;-68
2021/11/30 11:13:18;;;;;;;21.92;3.05;;;0.50;99.90;;;;;;5029350;28;20743;-67
2021/11/30 11:15:44;;;;;;;1.85;1.60;;;0.50;99.90;;;;;;5048431;28;20040;-68
2021/11/30 11:18:24;;;;;;;1.65;1.50;;;0.60;99.90;;;;;;5046076;28;20039;-68
2021/11/30 11:20:51;;;;;;;1.70;1.60;;;0.50;99.90;;;;;;5043115;28;20516;-67
2021/11/30 11:23:25;;;;;;;2.80;1.88;;;0.50;99.90;;;;;;5025840;28;20058;-68
2021/11/30 11:25:53;;;;;;;2.03;1.60;;;0.60;99.90;;;;;;5049362;28;20067;-68
2021/11/30 11:28:21;;;;;;;3.00;2.33;;;0.60;99.90;;;;;;5044073;28;20475;-67
2021/11/30 11:30:47;;;;;;;1.95;1.80;;;0.60;99.90;;;;;;5046188;28;20521;-67
2021/11/30 11:33:14;;;;;;;1.65;1.52;;;0.60;99.90;;;;;;5051534;28;20107;-67
2021/11/30 11:35:41;;;;;;;2.08;1.90;;;0.60;99.90;;;;;;5050469;28;20091;-67
2021/11/30 11:38:09;;;;;;;1.60;1.50;;;0.60;99.90;;;;;;5051778;28;20524;-68
2021/11/30 11:40:35;;;;;;;12.30;1.60;;;0.60;99.90;;;;;;5047669;28;20028;-68
2021/11/30 11:43:01;;;;;;;1.63;1.52;;;0.50;99.90;;;;;;5051010;28;20040;-67
2021/11/30 11:45:27;;;;;;;2.20;1.40;;;0.50;99.90;;;;;;5032391;28;20033;-68
2021/11/30 11:48:01;;;;;;;2.30;2.00;;;0.50;99.90;;;;;;5050435;28;20486;-67
2021/11/30 11:50:26;;;;;;;3.15;1.65;;;0.50;99.90;;;;;;5048755;28;20108;-68
2021/11/30 11:52:55;;;;;;;2.78;1.52;;;0.50;99.90;;;;;;5045796;28;20450;-67
2021/11/30 11:55:22;;;;;;;1.15;1.15;;;0.50;99.90;;;;;;5048975;28;20021;-68
2021/11/30 11:58:03;;;;;;;1.85;1.75;;;0.50;99.90;;;;;;5049031;28;20058;-67
2021/11/30 12:00:33;;;;;;;3.67;1.70;;;0.50;99.90;;;;;;5048202;28;20033;-68
2021/11/30 12:03:05;;;;;;;2.72;1.95;;;0.50;99.90;;;;;;5032300;28;20599;-68
2021/11/30 12:05:49;;;;;;;2.35;2.08;;;0.50;99.90;;;;;;5048292;28;20040;-68
2021/11/30 12:08:27;;;;;;;2.60;2.10;;;0.50;99.90;;;;;;5044340;28;20482;-67
2021/11/30 12:10:53;;;;;;;1.90;1.80;;;0.50;99.90;;;;;;5045425;28;20037;-68
2021/11/30 12:13:23;;;;;;;2.58;1.90;;;0.50;99.90;;;;;;5041526;28;20091;-67
2021/11/30 12:16:01;;;;;;;1.80;1.63;;;0.50;99.90;;;;;;5050195;28;20060;-67
2021/11/30 12:18:32;;;;;;;7.40;2.13;;;0.50;99.90;;;;;;5046933;28;20028;-68
2021/11/30 12:21:15;;;;;;;1.55;1.45;;;0.40;99.90;;;;;;5050900;28;20056;-67
2021/11/30 12:23:44;;;;;;;1.80;1.70;;;0.50;99.90;;;;;;5044223;28;20033;-68
2021/11/30 12:26:28;;;;;;;2.38;2.17;;;0.50;99.90;;;;;;5046897;28;20028;-67
2021/11/30 12:28:54;;;;;;;3.03;2.72;;;0.50;99.90;;;;;;5043580;28;20039;-65
2021/11/30 12:31:36;;;;;;;1.92;1.83;;;0.40;99.90;;;;;;5030717;28;20045;-65
2021/11/30 12:34:04;;;;;;;3.00;2.05;;;0.50;99.90;;;;;;5046077;28;20113;-66
2021/11/30 12:36:33;;;;;;;2.72;2.47;;;0.50;99.90;;;;;;5047491;28;20025;-66
2021/11/30 12:39:02;;;;;;;2.30;1.90;;;0.40;99.90;;;;;;5049840;28;20033;-66
2021/11/30 12:41:36;;;;;;;7.30;3.20;;;0.50;99.90;;;;;;5049907;28;20604;-67
2021/11/30 12:44:09;;;;;;;2.13;2.00;;;0.50;99.90;;;;;;5049287;28;20111;-67
2021/11/30 12:46:45;;;;;;;2.53;2.33;;;0.50;99.90;;;;;;5050302;28;20078;-67
2021/11/30 12:49:25;;;;;;;2.33;1.73;;;0.50;99.90;;;;;;5047428;28;20017;-66
2021/11/30 12:52:09;;;;;;;2.70;1.77;;;0.50;99.90;;;;;;5046776;28;20359;-66
2021/11/30 12:54:36;;;;;;;1.98;1.67;;;0.50;99.90;;;;;;5048270;28;20048;-67
2021/11/30 12:57:03;;;;;;;2.75;1.60;;;0.50;99.90;;;;;;5047542;28;20412;-66
2021/11/30 12:59:37;;;;;;;2.28;1.70;;;0.50;99.90;;;;;;5051610;28;20055;-66
2021/11/30 13:02:18;;;;;;;3.38;2.60;;;0.50;99.90;;;;;;5045539;28;20033;-65
2021/11/30 13:04:45;;;;;;;2.22;1.80;;;0.50;99.90;;;;;;5043325;28;20482;-65
2021/11/30 13:07:13;;;;;;;2.08;1.48;;;0.50;99.90;;;;;;5049129;28;20017;-65
2021/11/30 13:09:42;;;;;;;2.25;2.15;;;0.50;99.90;;;;;;5046810;28;20066;-65
2021/11/30 13:12:13;;;;;;;3.08;2.45;;;0.50;99.90;;;;;;5045534;28;20497;-66
2021/11/30 13:14:40;;;;;;;2.03;1.75;;;0.50;99.90;;;;;;5051769;28;20482;-66
2021/11/30 13:17:07;;;;;;;1.73;1.63;;;0.50;99.90;;;;;;5042044;28;20028;-65